Time;durP1;ratioP1;P1;durP2;ratioP2;P2;SDS_P1;SDS_P2;PMS_P1;PMS_P2;Temp;Humidity;BMP_temperature;BMP_pressure;BME280_temperature;BME280_humidity;BME280_pressure;Samples;Min_cycle;Max_cycle;Signal;HPM_P1;HPM_P2
2022/01/19 00:01:12;;;;;;;8.18;4.18;;;;;;;;;;5034958;28;20026;-77
2022/01/19 00:03:38;;;;;;;9.38;3.97;;;;;;;;;;5036690;28;20422;-77
2022/01/19 00:06:04;;;;;;;5.15;3.25;;;;;;;;;;5038206;28;20038;-77
2022/01/19 00:08:30;;;;;;;5.95;4.13;;;;;;;;;;5039176;28;20045;-77
2022/01/19 00:10:57;;;;;;;8.80;3.70;;;;;;;;;;5037827;28;20042;-77
2022/01/19 00:13:23;;;;;;;9.23;4.07;;;;;;;;;;5038796;28;20030;-77
2022/01/19 00:15:49;;;;;;;5.60;3.50;;;;;;;;;;5035583;28;20501;-77
2022/01/19 00:18:17;;;;;;;7.60;3.85;;;;;;;;;;5036713;28;20018;-77
2022/01/19 00:20:43;;;;;;;6.63;3.65;;;;;;;;;;5036624;28;20045;-76
2022/01/19 00:23:10;;;;;;;7.68;3.53;;;6.00;99.90;;;;;;5036876;28;20110;-76
2022/01/19 00:25:37;;;;;;;5.53;3.10;;;5.10;99.90;;;;;;5036031;28;20155;-77
2022/01/19 00:28:04;;;;;;;7.18;3.50;;;5.10;99.90;;;;;;5036148;28;20116;-77
2022/01/19 00:30:29;;;;;;;8.25;3.47;;;5.00;99.90;;;;;;5035876;28;20091;-77
2022/01/19 00:32:55;;;;;;;7.03;3.65;;;4.90;99.90;;;;;;5034568;28;20025;-77
2022/01/19 00:35:21;;;;;;;8.32;4.28;;;4.90;99.90;;;;;;5035791;28;20048;-77
2022/01/19 00:37:46;;;;;;;6.55;3.75;;;4.80;99.90;;;;;;5036265;28;20037;-77
2022/01/19 00:40:14;;;;;;;6.78;3.92;;;4.90;99.90;;;;;;5036337;28;20509;-77
2022/01/19 00:42:44;;;;;;;6.70;3.90;;;4.90;99.90;;;;;;5035696;28;20037;-77
2022/01/19 00:45:11;;;;;;;6.78;4.07;;;4.80;99.90;;;;;;5036197;28;20113;-77
2022/01/19 00:47:37;;;;;;;6.78;3.65;;;4.80;99.90;;;;;;5038530;28;20048;-77
2022/01/19 00:50:04;;;;;;;6.47;4.53;;;4.70;99.90;;;;;;5040136;28;20085;-77
2022/01/19 00:52:30;;;;;;;7.88;3.92;;;4.60;99.90;;;;;;5043240;28;20028;-77
2022/01/19 00:54:56;;;;;;;8.38;4.28;;;4.60;99.90;;;;;;5040514;28;20053;-77
2022/01/19 00:57:21;;;;;;;5.18;3.35;;;4.40;99.90;;;;;;5041973;28;20071;-77
2022/01/19 00:59:47;;;;;;;5.95;3.78;;;5.10;99.90;;;;;;5034778;28;20152;-78
2022/01/19 01:02:13;;;;;;;8.20;4.25;;;6.00;99.90;;;;;;5033088;28;20402;-77
2022/01/19 01:04:38;;;;;;;7.43;4.47;;;4.30;99.90;;;;;;5033584;28;20026;-77
2022/01/19 01:07:04;;;;;;;7.72;4.25;;;4.00;99.90;;;;;;5034533;28;20491;-78
2022/01/19 01:09:30;;;;;;;9.82;4.28;;;4.20;99.90;;;;;;5033842;28;20036;-77
2022/01/19 01:12:01;;;;;;;7.13;4.50;;;3.80;99.90;;;;;;5034276;28;20092;-77
2022/01/19 01:18:18;;;;;;;8.35;4.25;;;3.70;99.90;;;;;;5034209;28;20087;-77
2022/01/19 01:20:01;;;;;;;8.18;4.13;;;3.50;99.90;;;;;;5032672;28;20029;-77
2022/01/19 01:22:27;;;;;;;6.88;4.15;;;3.50;99.90;;;;;;5032445;28;20033;-77
2022/01/19 01:24:52;;;;;;;10.55;4.75;;;3.40;99.90;;;;;;5032303;28;20120;-77
2022/01/19 01:27:18;;;;;;;7.43;4.40;;;3.40;99.90;;;;;;5033871;28;20524;-77
2022/01/19 01:29:44;;;;;;;7.20;4.40;;;3.30;99.90;;;;;;5031875;28;20120;-77
2022/01/19 01:32:10;;;;;;;10.20;4.88;;;3.30;99.90;;;;;;5033663;28;20028;-77
2022/01/19 01:34:36;;;;;;;8.02;4.80;;;3.20;99.90;;;;;;5034667;28;20029;-76
2022/01/19 01:37:02;;;;;;;9.18;5.55;;;3.10;99.90;;;;;;5038887;28;20030;-77
2022/01/19 01:39:28;;;;;;;7.38;4.43;;;3.20;99.90;;;;;;5032030;28;20462;-77
2022/01/19 01:41:54;;;;;;;6.07;4.22;;;3.20;99.90;;;;;;5033209;28;20031;-77
2022/01/19 01:44:19;;;;;;;7.15;4.60;;;3.20;99.90;;;;;;5033326;28;20022;-76
2022/01/19 01:46:46;;;;;;;7.13;4.32;;;2.90;99.90;;;;;;5033471;28;20037;-77
2022/01/19 01:49:20;;;;;;;7.80;4.25;;;2.90;99.90;;;;;;5033017;28;20386;-77
2022/01/19 01:54:30;;;;;;;7.05;4.28;;;2.80;99.90;;;;;;5032517;28;20613;-76
2022/01/19 01:56:56;;;;;;;12.75;4.95;;;2.80;99.90;;;;;;5032885;28;20092;-77
2022/01/19 01:59:21;;;;;;;10.63;5.72;;;2.70;99.90;;;;;;5030637;28;20048;-77
2022/01/19 02:01:47;;;;;;;7.28;4.95;;;2.80;99.90;;;;;;5031894;28;20490;-77
2022/01/19 02:04:13;;;;;;;10.05;4.85;;;2.70;99.90;;;;;;5040560;28;20029;-77
2022/01/19 02:09:20;;;;;;;6.80;4.10;;;3.10;99.90;;;;;;5037553;28;20022;-77
2022/01/19 02:23:02;;;;;;;7.68;5.00;;;2.20;99.90;;;;;;5036098;28;20072;-77
2022/01/19 02:25:31;;;;;;;8.48;4.63;;;;;;;;;;5035281;28;20021;-77
2022/01/19 02:41:42;;;;;;;10.38;4.88;;;2.20;99.90;;;;;;5037602;28;20544;-77
2022/01/19 02:44:11;;;;;;;7.55;4.80;;;2.10;99.90;;;;;;5037364;28;20026;-77
2022/01/19 02:49:22;;;;;;;9.10;4.80;;;2.10;99.90;;;;;;5034974;28;20072;-77
2022/01/19 02:51:53;;;;;;;9.55;5.53;;;2.00;99.90;;;;;;5035042;28;20061;-77
2022/01/19 02:54:24;;;;;;;8.80;5.15;;;1.90;99.90;;;;;;5033727;28;20026;-77
2022/01/19 02:56:52;;;;;;;9.75;5.03;;;2.00;99.90;;;;;;5034906;28;20017;-77
2022/01/19 02:59:27;;;;;;;9.52;5.55;;;2.00;99.90;;;;;;5034639;28;20025;-77
2022/01/19 03:10:06;;;;;;;9.35;4.90;;;1.90;99.90;;;;;;5034813;28;20409;-77
2022/01/19 03:12:31;;;;;;;9.55;4.90;;;2.20;99.90;;;;;;5033392;28;20036;-77
2022/01/19 03:14:57;;;;;;;10.63;5.43;;;2.20;99.90;;;;;;5033457;28;20025;-77
2022/01/19 03:17:23;;;;;;;8.30;5.38;;;2.10;99.90;;;;;;5033590;28;20040;-77
2022/01/19 03:19:49;;;;;;;7.60;4.45;;;2.10;99.90;;;;;;5034138;28;20049;-77
2022/01/19 03:22:18;;;;;;;10.43;5.15;;;3.20;99.90;;;;;;5033362;28;20030;-76
2022/01/19 03:24:49;;;;;;;9.70;5.25;;;2.00;99.90;;;;;;5032403;28;20075;-76
2022/01/19 03:27:16;;;;;;;7.95;5.07;;;1.90;99.90;;;;;;5034162;28;20021;-77
2022/01/19 03:29:41;;;;;;;9.88;5.18;;;1.80;99.90;;;;;;5033284;28;20057;-77
2022/01/19 03:32:08;;;;;;;8.18;5.63;;;1.50;99.90;;;;;;5034084;28;20443;-76
2022/01/19 03:34:34;;;;;;;11.63;5.65;;;1.50;99.90;;;;;;5033603;28;20034;-77
2022/01/19 03:36:59;;;;;;;14.80;6.00;;;1.50;99.90;;;;;;5033834;28;20102;-77
2022/01/19 03:39:25;;;;;;;9.45;5.55;;;1.60;99.90;;;;;;5030969;28;20112;-76
2022/01/19 03:41:50;;;;;;;10.93;5.32;;;1.60;99.90;;;;;;5033805;28;20052;-77
2022/01/19 03:44:16;;;;;;;11.52;6.15;;;1.70;99.90;;;;;;5036677;28;20040;-77
2022/01/19 03:46:57;;;;;;;12.77;6.18;;;2.80;99.90;;;;;;5035428;28;20029;-77
2022/01/19 03:49:24;;;;;;;11.57;6.07;;;1.80;99.90;;;;;;5032613;28;20116;-77
2022/01/19 03:51:58;;;;;;;11.48;6.45;;;1.70;99.90;;;;;;5032353;28;20031;-77
2022/01/19 03:54:31;;;;;;;11.07;6.22;;;1.80;99.90;;;;;;5032285;28;20018;-77
2022/01/19 03:56:57;;;;;;;11.32;6.15;;;1.70;99.90;;;;;;5033928;28;20037;-77
2022/01/19 03:59:23;;;;;;;8.55;5.65;;;1.80;99.90;;;;;;5032353;28;20026;-77
2022/01/19 04:01:52;;;;;;;9.45;6.30;;;1.70;99.90;;;;;;5034463;28;20041;-77
2022/01/19 04:09:33;;;;;;;11.27;6.07;;;1.70;99.90;;;;;;5012228;28;20038;-76
2022/01/19 04:11:59;;;;;;;11.82;7.05;;;1.90;99.90;;;;;;5013356;28;20084;-76
2022/01/19 04:14:25;;;;;;;14.05;6.88;;;2.00;99.90;;;;;;5017054;28;20028;-77
2022/01/19 04:16:54;;;;;;;9.82;6.70;;;2.00;99.90;;;;;;5032107;28;20030;-77
2022/01/19 04:22:18;;;;;;;11.63;6.43;;;2.00;99.90;;;;;;5036591;28;20426;-76
2022/01/19 04:24:44;;;;;;;16.00;7.93;;;1.90;99.90;;;;;;5032682;28;20113;-77
2022/01/19 04:29:58;;;;;;;15.13;7.07;;;1.80;99.90;;;;;;5032095;28;20029;-77
2022/01/19 04:35:11;;;;;;;11.98;7.50;;;1.70;99.90;;;;;;5032417;28;20041;-77
2022/01/19 04:48:26;;;;;;;10.50;6.20;;;1.80;99.90;;;;;;5032258;28;20430;-77
2022/01/19 05:07:38;;;;;;;15.75;8.55;;;1.90;99.90;;;;;;5032070;28;20379;-76
2022/01/19 05:15:05;;;;;;;11.38;6.53;;;1.90;99.90;;;;;;5032267;28;20084;-76
2022/01/19 05:17:31;;;;;;;13.43;6.90;;;1.70;99.90;;;;;;5031792;28;20029;-77
2022/01/19 05:19:57;;;;;;;12.27;6.70;;;1.80;99.90;;;;;;5030533;28;20083;-76
2022/01/19 05:22:22;;;;;;;11.38;7.10;;;1.80;99.90;;;;;;5031299;28;20029;-77
2022/01/19 05:24:48;;;;;;;12.15;7.15;;;1.90;99.90;;;;;;5033161;28;20042;-76
2022/01/19 05:27:14;;;;;;;11.75;7.10;;;1.60;99.90;;;;;;5033398;28;20033;-77
2022/01/19 05:29:39;;;;;;;13.88;6.95;;;1.70;99.90;;;;;;5032464;28;20056;-77
2022/01/19 05:32:06;;;;;;;15.90;7.43;;;1.40;99.90;;;;;;5033227;28;20163;-77
2022/01/19 05:34:31;;;;;;;12.75;7.18;;;1.30;99.90;;;;;;5031651;28;20068;-77
2022/01/19 05:36:57;;;;;;;11.48;7.03;;;1.30;99.90;;;;;;5032773;28;20057;-77
2022/01/19 05:39:23;;;;;;;11.95;6.88;;;1.20;99.90;;;;;;5031027;28;20022;-76
2022/01/19 05:41:48;;;;;;;12.20;7.88;;;2.70;99.90;;;;;;5032473;28;20072;-77
2022/01/19 05:44:14;;;;;;;10.73;6.93;;;1.30;99.90;;;;;;5031701;28;20025;-77
2022/01/19 05:46:39;;;;;;;10.48;6.35;;;1.40;99.90;;;;;;5027224;28;20033;-77
2022/01/19 05:49:05;;;;;;;15.38;7.05;;;1.60;99.90;;;;;;5031210;28;20045;-76
2022/01/19 05:51:32;;;;;;;18.90;7.90;;;1.60;99.90;;;;;;5033423;28;20037;-77
2022/01/19 05:53:58;;;;;;;11.88;7.53;;;1.50;99.90;;;;;;5036455;28;20056;-77
2022/01/19 05:56:23;;;;;;;11.60;7.70;;;1.20;99.90;;;;;;5036630;28;20487;-77
2022/01/19 05:58:49;;;;;;;12.68;7.70;;;1.30;99.90;;;;;;5034913;28;20030;-77
2022/01/19 06:01:14;;;;;;;14.20;7.80;;;1.30;99.90;;;;;;5034995;28;20056;-77
2022/01/19 06:03:40;;;;;;;15.90;7.18;;;;;;;;;;5034599;28;20458;-76
2022/01/19 06:06:06;;;;;;;14.30;9.10;;;;;;;;;;5026136;28;20281;-77
2022/01/19 06:08:44;;;;;;;16.50;8.30;;;;;;;;;;5034510;28;20402;-75
2022/01/19 06:11:10;;;;;;;14.68;7.30;;;;;;;;;;5032873;28;20398;-75
2022/01/19 06:13:36;;;;;;;13.98;7.82;;;;;;;;;;5034397;28;20065;-75
2022/01/19 06:16:02;;;;;;;12.98;8.32;;;;;;;;;;5030218;28;20030;-77
2022/01/19 06:18:28;;;;;;;12.18;7.88;;;;;;;;;;5034556;28;20033;-77
2022/01/19 06:20:54;;;;;;;12.95;8.10;;;;;;;;;;5034747;28;20096;-77
2022/01/19 06:23:21;;;;;;;14.07;7.72;;;;;;;;;;5023533;28;20030;-77
2022/01/19 06:25:47;;;;;;;13.52;8.68;;;;;;;;;;5024315;28;20029;-76
2022/01/19 06:28:13;;;;;;;15.95;8.98;;;;;;;;;;5024065;28;20036;-76
2022/01/19 06:30:39;;;;;;;15.93;8.30;;;;;;;;;;5028048;28;20030;-76
2022/01/19 06:33:05;;;;;;;16.60;9.13;;;;;;;;;;5024262;28;20018;-76
2022/01/19 06:35:31;;;;;;;13.30;8.77;;;;;;;;;;5024224;28;20474;-76
2022/01/19 06:37:57;;;;;;;13.77;8.55;;;;;;;;;;5017378;28;20084;-76
2022/01/19 06:40:26;;;;;;;16.40;8.68;;;;;;;;;;5014088;28;20021;-76
2022/01/19 06:42:53;;;;;;;15.32;9.00;;;;;;;;;;5014125;28;20033;-76
2022/01/19 06:45:19;;;;;;;14.02;8.20;;;;;;;;;;5025434;28;20045;-77
2022/01/19 06:47:45;;;;;;;15.27;8.77;;;;;;;;;;5031966;28;20481;-77
2022/01/19 06:50:11;;;;;;;16.55;8.70;;;;;;;;;;5034154;28;20071;-77
2022/01/19 06:52:38;;;;;;;16.27;10.02;;;;;;;;;;5034279;28;20033;-76
2022/01/19 06:55:05;;;;;;;12.55;8.50;;;;;;;;;;5033865;28;20025;-76
2022/01/19 06:57:31;;;;;;;20.30;10.48;;;;;;;;;;5034273;28;20018;-76
2022/01/19 06:59:57;;;;;;;16.50;9.52;;;;;;;;;;5033655;28;20065;-77
2022/01/19 07:02:24;;;;;;;17.55;10.50;;;;;;;;;;5032809;28;20564;-76
2022/01/19 07:04:50;;;;;;;14.85;9.18;;;;;;;;;;5031797;28;20083;-76
2022/01/19 07:07:19;;;;;;;18.90;10.40;;;;;;;;;;5022626;28;20038;-76
2022/01/19 07:09:45;;;;;;;16.77;10.85;;;;;;;;;;5012758;28;20076;-76
2022/01/19 07:12:11;;;;;;;17.08;10.30;;;;;;;;;;5008120;28;20018;-77
2022/01/19 07:14:37;;;;;;;18.10;10.18;;;1.30;99.90;;;;;;5014701;28;20053;-75
2022/01/19 07:17:03;;;;;;;18.38;10.82;;;0.10;99.90;;;;;;5013365;28;20116;-77
2022/01/19 07:19:29;;;;;;;18.10;11.32;;;0.00;99.90;;;;;;5007601;28;20029;-77
2022/01/19 07:21:58;;;;;;;22.30;11.00;;;0.00;99.90;;;;;;5013979;28;20085;-77
2022/01/19 07:24:24;;;;;;;17.90;11.40;;;1.20;99.90;;;;;;5030063;28;20045;-79
2022/01/19 07:26:50;;;;;;;23.60;12.60;;;-0.40;99.90;;;;;;5016938;28;20057;-78
2022/01/19 07:29:15;;;;;;;19.30;11.95;;;0.00;99.90;;;;;;5038701;28;20033;-77
2022/01/19 07:31:42;;;;;;;16.60;10.27;;;0.00;99.90;;;;;;5039847;28;20025;-77
2022/01/19 07:34:08;;;;;;;21.70;11.63;;;;;;;;;;5040923;28;20076;-77
2022/01/19 07:36:35;;;;;;;20.13;10.95;;;;;;;;;;5035672;28;20017;-77
2022/01/19 07:39:01;;;;;;;18.50;10.90;;;;;;;;;;5033402;28;20032;-77
2022/01/19 07:41:27;;;;;;;21.15;11.32;;;;;;;;;;5033862;28;20022;-76
2022/01/19 07:43:53;;;;;;;20.55;11.35;;;;;;;;;;5033053;28;20036;-76
2022/01/19 07:46:19;;;;;;;19.65;11.23;;;;;;;;;;5032732;28;20076;-76
2022/01/19 07:48:45;;;;;;;22.95;11.70;;;;;;;;;;5032127;28;20061;-76
2022/01/19 07:51:11;;;;;;;19.25;11.35;;;0.10;99.90;;;;;;5012971;28;20032;-76
2022/01/19 07:53:38;;;;;;;19.88;11.68;;;-0.10;99.90;;;;;;5022552;28;20038;-76
2022/01/19 07:56:04;;;;;;;21.42;11.88;;;0.10;99.90;;;;;;5009177;28;20042;-74
2022/01/19 07:58:30;;;;;;;19.70;12.10;;;0.00;99.90;;;;;;5014925;28;20033;-75
2022/01/19 08:00:56;;;;;;;20.58;11.60;;;0.10;99.90;;;;;;5032651;28;20399;-75
2022/01/19 08:03:22;;;;;;;21.85;12.93;;;0.30;99.90;;;;;;5031466;28;20483;-75
2022/01/19 08:05:48;;;;;;;21.08;12.60;;;0.40;99.90;;;;;;5031544;28;20030;-75
2022/01/19 08:08:14;;;;;;;16.98;10.48;;;0.40;99.90;;;;;;5032634;28;20029;-74
2022/01/19 08:10:42;;;;;;;18.10;11.20;;;2.00;99.90;;;;;;5020499;28;20033;-75
2022/01/19 08:13:08;;;;;;;21.08;11.63;;;1.80;99.90;;;;;;5011562;28;20399;-75
2022/01/19 08:15:35;;;;;;;25.20;11.80;;;0.60;99.90;;;;;;5011770;28;20113;-75
2022/01/19 08:18:01;;;;;;;21.92;10.85;;;0.80;99.90;;;;;;5012805;28;20045;-77
2022/01/19 08:20:26;;;;;;;17.65;10.90;;;0.80;99.90;;;;;;5010644;28;20512;-77
2022/01/19 08:22:52;;;;;;;19.50;11.07;;;2.10;99.90;;;;;;5013138;28;20022;-76
2022/01/19 08:25:18;;;;;;;20.27;10.13;;;1.00;99.90;;;;;;5013797;28;20026;-75
2022/01/19 08:27:44;;;;;;;14.25;10.15;;;1.10;99.90;;;;;;5032216;28;20518;-75
2022/01/19 08:30:11;;;;;;;17.58;10.48;;;2.80;99.90;;;;;;5019312;28;20153;-75
2022/01/19 08:32:37;;;;;;;15.82;9.85;;;1.30;99.90;;;;;;5012467;28;20112;-75
2022/01/19 08:35:05;;;;;;;14.77;9.40;;;3.00;99.90;;;;;;5025207;28;20439;-75
2022/01/19 08:37:30;;;;;;;18.30;10.50;;;2.70;99.90;;;;;;5032059;28;20021;-75
2022/01/19 08:39:56;;;;;;;17.67;10.68;;;1.30;99.90;;;;;;5031429;28;20110;-75
2022/01/19 08:42:22;;;;;;;18.23;9.60;;;1.50;99.90;;;;;;5031756;28;20061;-75
2022/01/19 08:44:48;;;;;;;18.60;10.60;;;1.60;99.90;;;;;;5030856;28;20040;-75
2022/01/19 08:47:14;;;;;;;16.15;9.93;;;1.60;99.90;;;;;;5032036;28;20072;-75
2022/01/19 08:49:40;;;;;;;15.73;10.27;;;1.60;99.90;;;;;;5031070;28;20486;-75
2022/01/19 08:52:06;;;;;;;16.55;10.05;;;1.70;99.90;;;;;;5030560;28;20042;-75
2022/01/19 08:54:32;;;;;;;15.73;10.18;;;1.90;99.90;;;;;;5031503;28;20022;-75
2022/01/19 08:57:00;;;;;;;14.48;9.77;;;1.30;99.90;;;;;;5030429;28;20029;-75
2022/01/19 08:59:26;;;;;;;15.50;10.18;;;3.50;99.90;;;;;;5027789;28;20075;-75
2022/01/19 09:01:51;;;;;;;14.05;9.50;;;2.70;99.90;;;;;;5021223;28;20096;-75
2022/01/19 09:04:18;;;;;;;15.25;8.77;;;4.60;99.90;;;;;;5023474;28;20409;-74
2022/01/19 09:06:44;;;;;;;12.60;8.40;;;4.50;99.90;;;;;;5022323;28;20025;-75
2022/01/19 09:09:10;;;;;;;14.23;8.20;;;5.00;99.90;;;;;;5021634;28;20071;-75
2022/01/19 09:11:36;;;;;;;14.00;7.88;;;5.10;99.90;;;;;;5021527;28;20426;-75
2022/01/19 09:14:03;;;;;;;13.23;7.82;;;5.40;99.90;;;;;;5020499;28;20036;-75
2022/01/19 09:16:29;;;;;;;14.20;7.63;;;5.50;99.90;;;;;;5021260;28;20033;-75
2022/01/19 09:18:55;;;;;;;13.45;8.02;;;5.40;99.90;;;;;;5028839;28;20029;-75
2022/01/19 09:21:21;;;;;;;13.18;7.43;;;6.90;99.90;;;;;;5031476;28;20034;-75
2022/01/19 09:23:46;;;;;;;14.00;7.95;;;5.10;99.90;;;;;;5030549;28;20379;-75
2022/01/19 09:26:12;;;;;;;12.07;7.90;;;4.70;99.90;;;;;;5028079;28;20034;-75
2022/01/19 09:28:38;;;;;;;13.82;7.25;;;4.50;99.90;;;;;;5027588;28;20087;-75
2022/01/19 09:31:10;;;;;;;11.32;7.38;;;5.10;99.90;;;;;;5035391;28;20087;-75
2022/01/19 09:33:36;;;;;;;12.90;7.18;;;5.70;99.90;;;;;;5028624;28;20022;-75
2022/01/19 09:38:33;;;;;;;11.02;6.30;;;5.50;99.90;;;;;;5024999;28;20019;-76
2022/01/19 09:40:59;;;;;;;12.00;6.60;;;6.10;99.90;;;;;;5022740;28;20018;-76
2022/01/19 09:43:25;;;;;;;10.27;6.63;;;5.40;99.90;;;;;;5025710;28;20389;-75
2022/01/19 09:45:59;;;;;;;10.63;6.60;;;5.20;99.90;;;;;;5025288;28;20025;-75
2022/01/19 09:48:26;;;;;;;12.23;6.75;;;5.60;99.90;;;;;;5024298;28;20033;-75
2022/01/19 09:50:54;;;;;;;11.57;6.22;;;7.50;99.90;;;;;;5024141;28;20048;-75
2022/01/19 09:53:19;;;;;;;12.15;6.82;;;6.10;99.90;;;;;;5028023;28;20025;-75
2022/01/19 09:55:46;;;;;;;9.63;6.13;;;6.70;99.90;;;;;;5024081;28;20498;-75
2022/01/19 09:58:12;;;;;;;11.57;7.28;;;7.40;99.90;;;;;;5028194;28;20021;-75
2022/01/19 10:00:38;;;;;;;11.13;6.22;;;6.60;99.90;;;;;;5034399;28;20025;-75
2022/01/19 10:03:21;;;;;;;12.90;7.43;;;6.50;99.90;;;;;;5033759;28;20079;-75
2022/01/19 10:06:02;;;;;;;10.38;6.85;;;6.60;99.90;;;;;;5033965;28;20079;-75
2022/01/19 10:08:36;;;;;;;14.15;7.28;;;7.10;99.90;;;;;;5034305;28;20052;-75
2022/01/19 10:11:05;;;;;;;12.82;6.50;;;6.90;99.90;;;;;;5033992;28;20098;-75
2022/01/19 10:19:38;;;;;;;12.07;5.82;;;9.00;99.90;;;;;;5034435;28;20056;-74
2022/01/19 10:22:15;;;;;;;11.82;7.07;;;7.20;99.90;;;;;;5034255;28;20045;-76
2022/01/19 10:25:02;;;;;;;21.55;8.43;;;6.70;99.90;;;;;;5033958;28;20385;-75
2022/01/19 10:27:47;;;;;;;14.88;7.43;;;6.70;99.90;;;;;;5034865;28;20025;-75
2022/01/19 10:30:17;;;;;;;11.70;6.45;;;6.90;99.90;;;;;;5034067;28;20029;-75
2022/01/19 10:32:56;;;;;;;11.68;6.88;;;7.30;99.90;;;;;;5034463;28;20668;-75
2022/01/19 10:35:37;;;;;;;10.98;6.93;;;6.70;99.90;;;;;;5033616;28;20044;-75
2022/01/19 10:38:25;;;;;;;13.25;7.25;;;7.00;99.90;;;;;;5033792;28;20075;-76
2022/01/19 10:41:08;;;;;;;12.25;7.50;;;6.80;99.90;;;;;;5034234;28;20494;-75
2022/01/19 10:43:44;;;;;;;14.80;6.63;;;7.20;99.90;;;;;;5034028;28;20049;-76
2022/01/19 10:46:31;;;;;;;13.27;7.03;;;7.80;99.90;;;;;;5034225;28;20021;-75
2022/01/19 10:49:08;;;;;;;13.85;6.88;;;7.40;99.90;;;;;;5033343;28;20104;-76
2022/01/19 10:51:37;;;;;;;12.18;7.32;;;7.30;99.90;;;;;;5033975;28;20029;-75
2022/01/19 10:54:07;;;;;;;12.95;7.07;;;6.50;99.90;;;;;;5033780;28;20022;-75
2022/01/19 10:56:35;;;;;;;11.48;7.35;;;6.40;99.90;;;;;;5033582;28;20029;-75
2022/01/19 10:59:05;;;;;;;13.95;8.57;;;7.30;99.90;;;;;;5033195;28;20034;-75
2022/01/19 11:01:36;;;;;;;13.60;8.98;;;5.50;99.90;;;;;;5033870;28;20398;-75
2022/01/19 11:04:26;;;;;;;12.55;8.05;;;5.20;99.90;;;;;;5033497;28;20033;-78
2022/01/19 11:07:04;;;;;;;13.45;8.10;;;5.30;99.90;;;;;;5013678;28;20033;-76
2022/01/19 11:09:32;;;;;;;12.13;7.88;;;5.90;99.90;;;;;;5013465;28;20032;-76
2022/01/19 11:12:11;;;;;;;12.52;7.72;;;6.70;99.90;;;;;;5013673;28;20025;-75
2022/01/19 11:14:37;;;;;;;11.70;7.50;;;7.40;99.90;;;;;;5017612;28;20037;-74
2022/01/19 11:17:04;;;;;;;13.43;7.82;;;8.30;99.90;;;;;;5032924;28;20031;-75
2022/01/19 11:19:30;;;;;;;13.63;8.13;;;8.00;99.90;;;;;;5011879;28;20451;-77
2022/01/19 11:22:39;;;;;;;14.73;7.45;;;8.30;99.90;;;;;;5012247;28;20387;-76
2022/01/19 11:25:33;;;;;;;15.07;7.22;;;8.10;99.90;;;;;;5031424;28;20095;-75
2022/01/19 11:27:59;;;;;;;13.25;7.78;;;9.70;99.90;;;;;;5016571;28;20014;-76
2022/01/19 11:30:33;;;;;;;14.23;8.18;;;7.90;99.90;;;;;;5015339;28;20037;-76
2022/01/19 11:33:16;;;;;;;12.00;7.15;;;9.30;99.90;;;;;;5015838;28;20434;-76
2022/01/19 11:35:46;;;;;;;11.95;7.78;;;8.80;99.90;;;;;;5033462;28;20113;-76
2022/01/19 11:38:32;;;;;;;13.98;7.60;;;8.20;99.90;;;;;;5033822;28;20053;-76
2022/01/19 11:41:42;;;;;;;12.07;7.43;;;8.10;99.90;;;;;;5020115;28;20026;-75
2022/01/19 11:44:18;;;;;;;13.30;7.28;;;7.40;99.90;;;;;;5008727;28;20033;-76
2022/01/19 11:46:49;;;;;;;12.85;7.35;;;6.80;99.90;;;;;;5028843;28;20549;-76
2022/01/19 11:49:37;;;;;;;15.05;8.23;;;6.90;99.90;;;;;;5028155;28;20022;-76
2022/01/19 11:52:04;;;;;;;14.70;7.00;;;6.70;99.90;;;;;;5028742;28;20033;-76
2022/01/19 11:54:33;;;;;;;12.02;7.28;;;6.60;99.90;;;;;;5028090;28;20426;-76
2022/01/19 11:56:59;;;;;;;13.30;7.68;;;7.00;99.90;;;;;;5028416;28;20021;-76
2022/01/19 11:59:36;;;;;;;11.70;7.68;;;7.80;99.90;;;;;;5028591;28;20380;-76
2022/01/19 12:02:32;;;;;;;15.20;7.63;;;6.20;99.90;;;;;;5027933;28;20022;-76
2022/01/19 12:04:58;;;;;;;12.73;7.85;;;6.20;99.90;;;;;;5026421;28;20056;-76
2022/01/19 12:07:35;;;;;;;13.07;8.18;;;6.20;99.90;;;;;;5028697;28;20490;-77
2022/01/19 12:10:03;;;;;;;12.60;8.43;;;8.00;99.90;;;;;;5027935;28;20071;-78
2022/01/19 12:12:33;;;;;;;13.27;8.60;;;6.40;99.90;;;;;;5020584;28;20030;-75
2022/01/19 12:15:03;;;;;;;11.35;7.38;;;5.90;99.90;;;;;;5026879;28;20525;-76
2022/01/19 12:17:52;;;;;;;12.70;7.93;;;5.70;99.90;;;;;;5026997;28;20355;-76
2022/01/19 12:20:45;;;;;;;14.45;8.10;;;6.80;99.90;;;;;;5027303;28;20049;-75
2022/01/19 12:23:26;;;;;;;14.88;8.10;;;5.60;99.90;;;;;;5028045;28;20112;-77
2022/01/19 12:25:56;;;;;;;12.60;7.88;;;5.60;99.90;;;;;;5027434;28;20065;-76
2022/01/19 12:28:40;;;;;;;14.13;8.35;;;5.50;99.90;;;;;;5027603;28;20032;-77
2022/01/19 12:31:24;;;;;;;13.75;7.82;;;5.50;99.90;;;;;;5027806;28;20112;-76
2022/01/19 12:34:04;;;;;;;14.18;8.52;;;7.20;99.90;;;;;;5025986;28;20116;-75
2022/01/19 12:36:51;;;;;;;17.45;8.38;;;5.50;99.90;;;;;;5027438;28;20021;-76
2022/01/19 12:39:26;;;;;;;15.23;9.20;;;5.50;99.90;;;;;;5024337;28;20028;-76
2022/01/19 12:42:00;;;;;;;14.30;8.70;;;5.60;99.90;;;;;;5020357;28;20026;-75
2022/01/19 12:44:35;;;;;;;15.45;8.73;;;5.60;99.90;;;;;;5020104;28;20083;-76
2022/01/19 12:47:24;;;;;;;17.35;8.98;;;5.60;99.90;;;;;;5027075;28;20029;-75
2022/01/19 12:50:10;;;;;;;16.50;8.48;;;5.50;99.90;;;;;;5027214;28;20462;-75
2022/01/19 12:52:47;;;;;;;14.38;9.18;;;5.50;99.90;;;;;;5029429;28;20506;-75
2022/01/19 12:55:22;;;;;;;13.57;9.02;;;6.50;99.90;;;;;;5010212;28;20033;-77
2022/01/19 12:57:49;;;;;;;15.52;9.93;;;5.30;99.90;;;;;;5018842;28;20053;-75
2022/01/19 13:00:23;;;;;;;14.52;8.63;;;6.20;99.90;;;;;;5024491;28;20025;-75
2022/01/19 13:02:49;;;;;;;15.95;9.02;;;5.30;99.90;;;;;;5031078;28;20064;-76
2022/01/19 13:05:20;;;;;;;14.15;8.57;;;5.40;99.90;;;;;;5030708;28;20033;-76
2022/01/19 13:07:52;;;;;;;17.35;9.52;;;5.40;99.90;;;;;;5022021;28;20030;-75
2022/01/19 13:10:38;;;;;;;12.40;8.38;;;5.40;99.90;;;;;;5009239;28;20041;-75
2022/01/19 13:13:09;;;;;;;15.65;9.40;;;6.00;99.90;;;;;;5025879;28;20052;-75
2022/01/19 13:15:46;;;;;;;15.80;9.35;;;5.30;99.90;;;;;;5024624;28;20034;-75
2022/01/19 13:18:15;;;;;;;16.67;9.43;;;5.90;99.90;;;;;;5029056;28;20025;-75
2022/01/19 13:20:55;;;;;;;13.65;8.88;;;5.40;99.90;;;;;;5030977;28;20104;-73
2022/01/19 13:23:21;;;;;;;15.60;10.38;;;5.20;99.90;;;;;;5031849;28;20605;-76
2022/01/19 13:26:16;;;;;;;15.13;9.35;;;5.40;99.90;;;;;;5030708;28;20041;-76
2022/01/19 13:28:42;;;;;;;17.52;10.27;;;5.10;99.90;;;;;;5026308;28;20099;-77
2022/01/19 13:31:18;;;;;;;15.45;10.25;;;5.10;99.90;;;;;;5031681;28;20033;-78
2022/01/19 13:34:03;;;;;;;18.15;10.32;;;5.00;99.90;;;;;;5030891;28;20637;-76
2022/01/19 13:36:35;;;;;;;14.65;9.85;;;5.20;99.90;;;;;;5030435;28;20045;-77
2022/01/19 13:39:02;;;;;;;14.43;9.65;;;5.00;99.90;;;;;;5030849;28;20018;-77
2022/01/19 13:41:28;;;;;;;15.52;10.13;;;5.00;99.90;;;;;;5031214;28;20022;-75
2022/01/19 13:44:05;;;;;;;17.50;9.82;;;4.90;99.90;;;;;;5031074;28;20072;-74
2022/01/19 13:46:32;;;;;;;16.25;10.38;;;5.40;99.90;;;;;;5030426;28;20034;-74
2022/01/19 13:49:01;;;;;;;18.05;11.40;;;4.90;99.90;;;;;;5028654;28;20029;-74
2022/01/19 13:51:29;;;;;;;19.85;11.90;;;6.00;99.90;;;;;;5011324;28;20109;-75
2022/01/19 13:54:00;;;;;;;24.67;12.10;;;5.00;99.90;;;;;;5011588;28;20444;-74
2022/01/19 13:56:35;;;;;;;24.17;12.80;;;4.90;99.90;;;;;;5025548;28;20072;-74
2022/01/19 13:59:07;;;;;;;20.48;12.18;;;5.20;99.90;;;;;;5010881;28;20029;-75
2022/01/19 14:01:51;;;;;;;16.83;11.13;;;6.00;99.90;;;;;;5010327;28;20041;-75
2022/01/19 14:04:17;;;;;;;17.25;11.10;;;4.90;99.90;;;;;;5018439;28;20029;-74
2022/01/19 14:06:45;;;;;;;18.10;11.55;;;5.90;99.90;;;;;;5029459;28;20033;-74
2022/01/19 14:09:16;;;;;;;21.88;12.27;;;4.90;99.90;;;;;;5029305;28;20049;-78
2022/01/19 14:11:58;;;;;;;18.15;11.57;;;6.20;99.90;;;;;;5030946;28;20482;-77
2022/01/19 14:14:26;;;;;;;19.80;12.00;;;4.70;99.90;;;;;;5034364;28;20075;-77
2022/01/19 14:16:55;;;;;;;19.30;11.60;;;4.80;99.90;;;;;;5033044;28;20029;-77
2022/01/19 14:19:30;;;;;;;20.17;11.27;;;4.80;99.90;;;;;;5034159;28;20136;-77
2022/01/19 14:22:07;;;;;;;23.23;11.13;;;4.80;99.90;;;;;;5034337;28;20018;-77
2022/01/19 14:24:58;;;;;;;20.58;11.30;;;4.80;99.90;;;;;;5034243;28;20108;-77
2022/01/19 14:27:23;;;;;;;19.45;12.45;;;4.80;99.90;;;;;;5033951;28;20032;-78
2022/01/19 14:30:14;;;;;;;21.42;12.00;;;4.80;99.90;;;;;;5033965;28;20394;-77
2022/01/19 14:32:54;;;;;;;19.27;11.43;;;4.90;99.90;;;;;;5034154;28;20029;-77
2022/01/19 14:35:20;;;;;;;20.67;11.80;;;5.10;99.90;;;;;;5033465;28;20053;-78
2022/01/19 14:38:07;;;;;;;18.15;11.48;;;4.90;99.90;;;;;;5034377;28;20032;-77
2022/01/19 14:40:48;;;;;;;21.33;11.88;;;4.80;99.90;;;;;;5033810;28;20088;-77
2022/01/19 14:43:17;;;;;;;21.25;11.45;;;4.70;99.90;;;;;;5034545;28;20034;-78
2022/01/19 14:46:10;;;;;;;18.42;11.02;;;4.70;99.90;;;;;;5033436;28;20025;-77
2022/01/19 14:48:37;;;;;;;19.80;11.43;;;6.20;99.90;;;;;;5033671;28;20032;-76
2022/01/19 14:51:24;;;;;;;19.27;11.55;;;4.70;99.90;;;;;;5033683;28;20032;-77
2022/01/19 14:53:57;;;;;;;20.90;11.40;;;4.70;99.90;;;;;;5034200;28;20033;-77